sensor_id;sensor_type;location;lat;lon;timestamp;temperature;humidity
29777;DHT22;16677;52.224;7.484;2022-08-05T00:02:20;18.30;99.90
29777;DHT22;16677;52.224;7.484;2022-08-05T00:04:48;18.30;99.90
29777;DHT22;16677;52.224;7.484;2022-08-05T00:07:22;18.30;99.90
29777;DHT22;16677;52.224;7.484;2022-08-05T00:10:09;18.30;99.90
29777;DHT22;16677;52.224;7.484;2022-08-05T00:12:36;18.30;99.90
29777;DHT22;16677;52.224;7.484;2022-08-05T00:15:22;18.30;99.90
29777;DHT22;16677;52.224;7.484;2022-08-05T00:18:08;18.30;99.90
29777;DHT22;16677;52.224;7.484;2022-08-05T00:20:47;18.30;99.90
29777;DHT22;16677;52.224;7.484;2022-08-05T00:23:14;18.30;99.90
29777;DHT22;16677;52.224;7.484;2022-08-05T00:25:41;18.20;99.90
29777;DHT22;16677;52.224;7.484;2022-08-05T00:28:12;18.20;99.90
29777;DHT22;16677;52.224;7.484;2022-08-05T00:30:39;18.20;99.90
29777;DHT22;16677;52.224;7.484;2022-08-05T00:33:10;18.20;99.90
29777;DHT22;16677;52.224;7.484;2022-08-05T00:35:57;18.20;99.90
29777;DHT22;16677;52.224;7.484;2022-08-05T00:38:44;18.30;99.90
29777;DHT22;16677;52.224;7.484;2022-08-05T00:41:11;18.20;99.90
29777;DHT22;16677;52.224;7.484;2022-08-05T00:43:40;18.20;99.90
29777;DHT22;16677;52.224;7.484;2022-08-05T00:46:15;18.10;99.90
29777;DHT22;16677;52.224;7.484;2022-08-05T00:49:02;18.10;99.90
29777;DHT22;16677;52.224;7.484;2022-08-05T00:51:33;17.90;99.90
29777;DHT22;16677;52.224;7.484;2022-08-05T00:54:17;17.70;99.90
29777;DHT22;16677;52.224;7.484;2022-08-05T00:56:44;17.50;99.90
29777;DHT22;16677;52.224;7.484;2022-08-05T00:59:17;17.50;99.90
29777;DHT22;16677;52.224;7.484;2022-08-05T01:01:44;17.40;99.90
29777;DHT22;16677;52.224;7.484;2022-08-05T01:04:14;17.40;99.90
29777;DHT22;16677;52.224;7.484;2022-08-05T01:06:52;17.30;99.90
29777;DHT22;16677;52.224;7.484;2022-08-05T01:09:21;17.30;99.90
29777;DHT22;16677;52.224;7.484;2022-08-05T01:11:49;17.30;99.90
29777;DHT22;16677;52.224;7.484;2022-08-05T01:17:09;17.30;99.90
29777;DHT22;16677;52.224;7.484;2022-08-05T01:19:41;17.30;99.90
29777;DHT22;16677;52.224;7.484;2022-08-05T01:31:15;17.30;99.90
29777;DHT22;16677;52.224;7.484;2022-08-05T01:33:51;17.40;99.90
29777;DHT22;16677;52.224;7.484;2022-08-05T01:36:25;17.40;99.90
29777;DHT22;16677;52.224;7.484;2022-08-05T01:38:55;17.40;99.90
29777;DHT22;16677;52.224;7.484;2022-08-05T01:41:30;17.50;99.90
29777;DHT22;16677;52.224;7.484;2022-08-05T01:44:00;17.30;99.90
29777;DHT22;16677;52.224;7.484;2022-08-05T01:46:29;17.40;99.90
29777;DHT22;16677;52.224;7.484;2022-08-05T01:49:16;17.30;99.90
29777;DHT22;16677;52.224;7.484;2022-08-05T01:51:55;17.30;99.90
29777;DHT22;16677;52.224;7.484;2022-08-05T01:54:28;17.20;99.90
29777;DHT22;16677;52.224;7.484;2022-08-05T01:56:56;17.20;99.90
29777;DHT22;16677;52.224;7.484;2022-08-05T01:59:46;17.20;99.90
29777;DHT22;16677;52.224;7.484;2022-08-05T02:02:14;17.20;99.90
29777;DHT22;16677;52.224;7.484;2022-08-05T02:04:44;17.20;99.90
29777;DHT22;16677;52.224;7.484;2022-08-05T02:07:16;17.10;99.90
29777;DHT22;16677;52.224;7.484;2022-08-05T02:09:49;17.10;99.90
29777;DHT22;16677;52.224;7.484;2022-08-05T02:14:51;17.20;99.90
29777;DHT22;16677;52.224;7.484;2022-08-05T02:17:32;17.20;99.90
29777;DHT22;16677;52.224;7.484;2022-08-05T02:20:22;17.40;99.90
29777;DHT22;16677;52.224;7.484;2022-08-05T02:22:59;17.40;99.90
29777;DHT22;16677;52.224;7.484;2022-08-05T02:25:30;17.50;99.90
29777;DHT22;16677;52.224;7.484;2022-08-05T02:28:01;17.40;99.90
29777;DHT22;16677;52.224;7.484;2022-08-05T02:30:42;17.40;99.90
29777;DHT22;16677;52.224;7.484;2022-08-05T02:33:23;17.30;99.90
29777;DHT22;16677;52.224;7.484;2022-08-05T02:36:07;17.20;99.90
29777;DHT22;16677;52.224;7.484;2022-08-05T02:38:40;17.30;99.90
29777;DHT22;16677;52.224;7.484;2022-08-05T02:41:21;17.20;99.90
29777;DHT22;16677;52.224;7.484;2022-08-05T02:43:54;17.20;99.90
29777;DHT22;16677;52.224;7.484;2022-08-05T02:46:33;17.20;99.90
29777;DHT22;16677;52.224;7.484;2022-08-05T02:49:19;17.20;99.90
29777;DHT22;16677;52.224;7.484;2022-08-05T02:51:48;17.20;99.90
29777;DHT22;16677;52.224;7.484;2022-08-05T02:54:31;17.20;99.90
29777;DHT22;16677;52.224;7.484;2022-08-05T02:57:04;17.20;99.90
29777;DHT22;16677;52.224;7.484;2022-08-05T02:59:53;17.10;99.90
29777;DHT22;16677;52.224;7.484;2022-08-05T03:02:23;17.20;99.90
29777;DHT22;16677;52.224;7.484;2022-08-05T03:04:54;17.20;99.90
29777;DHT22;16677;52.224;7.484;2022-08-05T03:07:22;17.10;99.90
29777;DHT22;16677;52.224;7.484;2022-08-05T03:10:10;17.10;99.90
29777;DHT22;16677;52.224;7.484;2022-08-05T03:12:39;17.00;99.90
29777;DHT22;16677;52.224;7.484;2022-08-05T03:15:08;16.90;99.90
29777;DHT22;16677;52.224;7.484;2022-08-05T03:17:38;16.90;99.90
29777;DHT22;16677;52.224;7.484;2022-08-05T03:20:08;16.80;99.90
29777;DHT22;16677;52.224;7.484;2022-08-05T03:22:36;16.80;99.90
29777;DHT22;16677;52.224;7.484;2022-08-05T03:25:10;16.80;99.90
29777;DHT22;16677;52.224;7.484;2022-08-05T03:27:57;16.90;99.90
29777;DHT22;16677;52.224;7.484;2022-08-05T03:30:28;17.00;99.90
29777;DHT22;16677;52.224;7.484;2022-08-05T03:33:01;16.90;99.90
29777;DHT22;16677;52.224;7.484;2022-08-05T03:35:29;17.00;99.90
29777;DHT22;16677;52.224;7.484;2022-08-05T03:38:00;17.10;99.90
29777;DHT22;16677;52.224;7.484;2022-08-05T03:40:27;17.20;99.90
29777;DHT22;16677;52.224;7.484;2022-08-05T03:42:58;17.20;99.90
29777;DHT22;16677;52.224;7.484;2022-08-05T03:45:46;17.10;99.90
29777;DHT22;16677;52.224;7.484;2022-08-05T03:48:25;17.00;99.90
29777;DHT22;16677;52.224;7.484;2022-08-05T03:54:06;17.10;99.90
29777;DHT22;16677;52.224;7.484;2022-08-05T03:56:55;17.00;99.90
29777;DHT22;16677;52.224;7.484;2022-08-05T03:59:40;17.10;99.90
29777;DHT22;16677;52.224;7.484;2022-08-05T04:02:14;17.00;99.90
29777;DHT22;16677;52.224;7.484;2022-08-05T04:05:04;16.80;99.90
29777;DHT22;16677;52.224;7.484;2022-08-05T04:07:39;16.80;99.90
29777;DHT22;16677;52.224;7.484;2022-08-05T04:10:26;16.80;99.90
29777;DHT22;16677;52.224;7.484;2022-08-05T04:12:59;16.80;99.90
29777;DHT22;16677;52.224;7.484;2022-08-05T04:15:29;16.70;99.90
29777;DHT22;16677;52.224;7.484;2022-08-05T04:18:05;16.70;99.90
29777;DHT22;16677;52.224;7.484;2022-08-05T04:20:35;16.60;99.90
29777;DHT22;16677;52.224;7.484;2022-08-05T04:23:03;16.60;99.90
29777;DHT22;16677;52.224;7.484;2022-08-05T04:25:30;16.70;99.90
29777;DHT22;16677;52.224;7.484;2022-08-05T04:28:18;16.70;99.90
29777;DHT22;16677;52.224;7.484;2022-08-05T04:30:56;16.70;99.90
29777;DHT22;16677;52.224;7.484;2022-08-05T04:33:23;16.70;99.90
29777;DHT22;16677;52.224;7.484;2022-08-05T04:36:10;16.70;99.90
29777;DHT22;16677;52.224;7.484;2022-08-05T04:38:58;16.80;99.90
29777;DHT22;16677;52.224;7.484;2022-08-05T04:41:24;16.90;99.90
29777;DHT22;16677;52.224;7.484;2022-08-05T04:44:03;17.00;99.90
29777;DHT22;16677;52.224;7.484;2022-08-05T04:46:35;16.90;99.90
29777;DHT22;16677;52.224;7.484;2022-08-05T04:49:07;16.90;99.90
29777;DHT22;16677;52.224;7.484;2022-08-05T04:51:41;16.90;99.90
29777;DHT22;16677;52.224;7.484;2022-08-05T04:54:09;17.00;99.90
29777;DHT22;16677;52.224;7.484;2022-08-05T04:56:38;17.10;99.90
29777;DHT22;16677;52.224;7.484;2022-08-05T04:59:05;17.10;99.90
29777;DHT22;16677;52.224;7.484;2022-08-05T05:01:51;17.10;99.90
29777;DHT22;16677;52.224;7.484;2022-08-05T05:04:34;17.10;99.90
29777;DHT22;16677;52.224;7.484;2022-08-05T05:07:03;17.10;99.90
29777;DHT22;16677;52.224;7.484;2022-08-05T05:09:35;17.00;99.90
29777;DHT22;16677;52.224;7.484;2022-08-05T05:12:03;16.90;99.90
29777;DHT22;16677;52.224;7.484;2022-08-05T05:14:31;17.10;99.90
29777;DHT22;16677;52.224;7.484;2022-08-05T05:17:02;17.10;99.90
29777;DHT22;16677;52.224;7.484;2022-08-05T05:19:32;17.10;99.90
29777;DHT22;16677;52.224;7.484;2022-08-05T05:22:10;17.10;99.90
29777;DHT22;16677;52.224;7.484;2022-08-05T05:24:52;17.20;99.90
29777;DHT22;16677;52.224;7.484;2022-08-05T05:27:30;17.20;99.90
29777;DHT22;16677;52.224;7.484;2022-08-05T05:30:17;17.10;99.90
29777;DHT22;16677;52.224;7.484;2022-08-05T05:33:00;17.00;99.90
29777;DHT22;16677;52.224;7.484;2022-08-05T05:35:42;17.10;99.90
29777;DHT22;16677;52.224;7.484;2022-08-05T05:38:10;17.20;99.90
29777;DHT22;16677;52.224;7.484;2022-08-05T05:40:41;17.30;99.90
29777;DHT22;16677;52.224;7.484;2022-08-05T05:43:18;17.30;99.90
29777;DHT22;16677;52.224;7.484;2022-08-05T05:46:05;17.30;99.90
29777;DHT22;16677;52.224;7.484;2022-08-05T05:48:42;17.20;99.90
29777;DHT22;16677;52.224;7.484;2022-08-05T05:51:10;17.20;99.90
29777;DHT22;16677;52.224;7.484;2022-08-05T05:53:44;17.10;99.90
29777;DHT22;16677;52.224;7.484;2022-08-05T05:56:20;17.00;99.90
29777;DHT22;16677;52.224;7.484;2022-08-05T05:59:00;17.00;99.90
29777;DHT22;16677;52.224;7.484;2022-08-05T06:01:30;17.00;99.90
29777;DHT22;16677;52.224;7.484;2022-08-05T06:04:11;17.00;99.90
29777;DHT22;16677;52.224;7.484;2022-08-05T06:06:41;17.00;99.90
29777;DHT22;16677;52.224;7.484;2022-08-05T06:09:14;17.10;99.90
29777;DHT22;16677;52.224;7.484;2022-08-05T06:11:51;17.10;99.90
29777;DHT22;16677;52.224;7.484;2022-08-05T06:14:30;17.10;99.90
29777;DHT22;16677;52.224;7.484;2022-08-05T06:16:59;17.00;99.90
29777;DHT22;16677;52.224;7.484;2022-08-05T06:19:46;17.00;99.90
29777;DHT22;16677;52.224;7.484;2022-08-05T06:22:27;16.90;99.90
29777;DHT22;16677;52.224;7.484;2022-08-05T06:24:55;17.00;99.90
29777;DHT22;16677;52.224;7.484;2022-08-05T06:27:23;17.00;99.90
29777;DHT22;16677;52.224;7.484;2022-08-05T06:30:10;17.00;99.90
29777;DHT22;16677;52.224;7.484;2022-08-05T06:32:47;16.90;99.90
29777;DHT22;16677;52.224;7.484;2022-08-05T06:35:16;16.80;99.90
29777;DHT22;16677;52.224;7.484;2022-08-05T06:38:04;16.90;99.90
29777;DHT22;16677;52.224;7.484;2022-08-05T06:40:37;16.80;99.90
29777;DHT22;16677;52.224;7.484;2022-08-05T06:43:10;16.70;99.90
29777;DHT22;16677;52.224;7.484;2022-08-05T06:45:57;16.70;99.90
29777;DHT22;16677;52.224;7.484;2022-08-05T06:48:33;16.70;99.90
29777;DHT22;16677;52.224;7.484;2022-08-05T06:51:21;16.70;99.90
29777;DHT22;16677;52.224;7.484;2022-08-05T06:53:59;16.70;99.90
29777;DHT22;16677;52.224;7.484;2022-08-05T06:56:28;16.80;99.90
29777;DHT22;16677;52.224;7.484;2022-08-05T06:58:59;16.80;99.90
29777;DHT22;16677;52.224;7.484;2022-08-05T07:01:26;16.70;99.90
29777;DHT22;16677;52.224;7.484;2022-08-05T07:03:59;16.60;99.90
29777;DHT22;16677;52.224;7.484;2022-08-05T07:06:28;16.60;99.90
29777;DHT22;16677;52.224;7.484;2022-08-05T07:08:57;16.60;99.90
29777;DHT22;16677;52.224;7.484;2022-08-05T07:11:24;16.60;99.90
29777;DHT22;16677;52.224;7.484;2022-08-05T07:13:54;16.50;99.90
29777;DHT22;16677;52.224;7.484;2022-08-05T07:16:54;16.50;99.90
29777;DHT22;16677;52.224;7.484;2022-08-05T07:19:45;16.50;99.90
29777;DHT22;16677;52.224;7.484;2022-08-05T07:22:32;16.50;99.90
29777;DHT22;16677;52.224;7.484;2022-08-05T07:25:00;16.40;99.90
29777;DHT22;16677;52.224;7.484;2022-08-05T07:27:48;16.30;99.90
29777;DHT22;16677;52.224;7.484;2022-08-05T07:30:25;16.50;99.90
29777;DHT22;16677;52.224;7.484;2022-08-05T07:33:02;16.50;99.90
29777;DHT22;16677;52.224;7.484;2022-08-05T07:35:39;16.50;99.90
29777;DHT22;16677;52.224;7.484;2022-08-05T07:38:27;16.50;99.90
29777;DHT22;16677;52.224;7.484;2022-08-05T07:41:08;16.70;99.90
29777;DHT22;16677;52.224;7.484;2022-08-05T07:43:56;16.70;99.90
29777;DHT22;16677;52.224;7.484;2022-08-05T07:46:28;16.80;99.90
29777;DHT22;16677;52.224;7.484;2022-08-05T07:48:58;16.50;99.90
29777;DHT22;16677;52.224;7.484;2022-08-05T07:51:31;16.50;99.90
29777;DHT22;16677;52.224;7.484;2022-08-05T07:54:04;16.50;99.90
29777;DHT22;16677;52.224;7.484;2022-08-05T07:56:31;16.50;99.90
29777;DHT22;16677;52.224;7.484;2022-08-05T07:59:17;16.40;99.90
29777;DHT22;16677;52.224;7.484;2022-08-05T08:01:56;16.50;99.90
29777;DHT22;16677;52.224;7.484;2022-08-05T08:04:23;16.50;99.90
29777;DHT22;16677;52.224;7.484;2022-08-05T08:07:03;16.40;99.90
29777;DHT22;16677;52.224;7.484;2022-08-05T08:09:33;16.30;99.90
29777;DHT22;16677;52.224;7.484;2022-08-05T08:12:00;16.40;99.90
29777;DHT22;16677;52.224;7.484;2022-08-05T08:14:41;16.50;99.90
29777;DHT22;16677;52.224;7.484;2022-08-05T08:17:12;16.50;99.90
29777;DHT22;16677;52.224;7.484;2022-08-05T08:19:43;16.50;99.90
29777;DHT22;16677;52.224;7.484;2022-08-05T08:22:31;16.60;99.90
29777;DHT22;16677;52.224;7.484;2022-08-05T08:24:59;16.60;99.90
29777;DHT22;16677;52.224;7.484;2022-08-05T08:27:43;16.50;99.90
29777;DHT22;16677;52.224;7.484;2022-08-05T08:30:40;16.40;99.90
29777;DHT22;16677;52.224;7.484;2022-08-05T08:33:15;16.60;99.90
29777;DHT22;16677;52.224;7.484;2022-08-05T08:35:45;16.50;99.90
29777;DHT22;16677;52.224;7.484;2022-08-05T08:38:29;16.40;99.90
29777;DHT22;16677;52.224;7.484;2022-08-05T08:41:07;16.40;99.90
29777;DHT22;16677;52.224;7.484;2022-08-05T08:43:39;16.30;99.90
29777;DHT22;16677;52.224;7.484;2022-08-05T08:46:29;16.30;99.90
29777;DHT22;16677;52.224;7.484;2022-08-05T08:48:58;16.40;99.90
29777;DHT22;16677;52.224;7.484;2022-08-05T08:51:47;16.30;99.90
29777;DHT22;16677;52.224;7.484;2022-08-05T08:54:32;16.20;99.90
29777;DHT22;16677;52.224;7.484;2022-08-05T08:57:07;16.20;99.90
29777;DHT22;16677;52.224;7.484;2022-08-05T08:59:37;16.30;99.90
29777;DHT22;16677;52.224;7.484;2022-08-05T09:02:07;16.40;99.90
29777;DHT22;16677;52.224;7.484;2022-08-05T09:04:35;16.50;99.90
29777;DHT22;16677;52.224;7.484;2022-08-05T09:07:25;16.70;99.90
29777;DHT22;16677;52.224;7.484;2022-08-05T09:09:55;16.70;99.90
29777;DHT22;16677;52.224;7.484;2022-08-05T09:12:22;16.60;99.90
29777;DHT22;16677;52.224;7.484;2022-08-05T09:14:56;16.60;99.90
29777;DHT22;16677;52.224;7.484;2022-08-05T09:17:32;16.70;99.90
29777;DHT22;16677;52.224;7.484;2022-08-05T09:20:07;16.90;99.90
29777;DHT22;16677;52.224;7.484;2022-08-05T09:25:20;17.30;99.90
29777;DHT22;16677;52.224;7.484;2022-08-05T09:27:50;17.50;99.90
29777;DHT22;16677;52.224;7.484;2022-08-05T09:30:33;17.30;99.90
29777;DHT22;16677;52.224;7.484;2022-08-05T09:33:03;17.60;99.90
29777;DHT22;16677;52.224;7.484;2022-08-05T09:36:02;17.70;99.90
29777;DHT22;16677;52.224;7.484;2022-08-05T09:38:37;18.00;99.90
29777;DHT22;16677;52.224;7.484;2022-08-05T09:41:06;18.10;99.90
29777;DHT22;16677;52.224;7.484;2022-08-05T09:43:37;17.70;99.90
29777;DHT22;16677;52.224;7.484;2022-08-05T09:46:26;17.50;99.90
29777;DHT22;16677;52.224;7.484;2022-08-05T09:48:58;17.50;99.90
29777;DHT22;16677;52.224;7.484;2022-08-05T09:51:44;17.60;99.90
29777;DHT22;16677;52.224;7.484;2022-08-05T09:54:16;17.70;99.90
29777;DHT22;16677;52.224;7.484;2022-08-05T09:56:55;18.10;92.40
29777;DHT22;16677;52.224;7.484;2022-08-05T09:59:26;18.00;96.10
29777;DHT22;16677;52.224;7.484;2022-08-05T10:01:53;18.20;99.10
29777;DHT22;16677;52.224;7.484;2022-08-05T10:04:34;18.70;93.70
29777;DHT22;16677;52.224;7.484;2022-08-05T10:07:04;18.60;74.70
29777;DHT22;16677;52.224;7.484;2022-08-05T10:09:55;18.40;99.90
29777;DHT22;16677;52.224;7.484;2022-08-05T10:12:48;18.70;99.90
29777;DHT22;16677;52.224;7.484;2022-08-05T10:15:20;18.60;99.90
29777;DHT22;16677;52.224;7.484;2022-08-05T10:23:06;18.90;93.00
29777;DHT22;16677;52.224;7.484;2022-08-05T10:25:55;18.80;94.80
29777;DHT22;16677;52.224;7.484;2022-08-05T10:28:22;18.80;67.00
29777;DHT22;16677;52.224;7.484;2022-08-05T10:30:56;18.80;77.20
29777;DHT22;16677;52.224;7.484;2022-08-05T10:33:45;18.70;60.60
29777;DHT22;16677;52.224;7.484;2022-08-05T10:36:19;19.00;58.80
29777;DHT22;16677;52.224;7.484;2022-08-05T10:38:58;19.20;73.20
29777;DHT22;16677;52.224;7.484;2022-08-05T10:41:35;19.70;43.60
29777;DHT22;16677;52.224;7.484;2022-08-05T10:44:16;20.20;31.00
29777;DHT22;16677;52.224;7.484;2022-08-05T10:49:17;19.20;68.80
29777;DHT22;16677;52.224;7.484;2022-08-05T10:51:55;19.50;58.30
29777;DHT22;16677;52.224;7.484;2022-08-05T10:55:00;19.60;61.70
29777;DHT22;16677;52.224;7.484;2022-08-05T10:57:28;20.20;41.40
29777;DHT22;16677;52.224;7.484;2022-08-05T11:00:20;19.90;34.50
29777;DHT22;16677;52.224;7.484;2022-08-05T11:06:05;19.80;36.30
29777;DHT22;16677;52.224;7.484;2022-08-05T11:17:51;20.40;50.80
29777;DHT22;16677;52.224;7.484;2022-08-05T11:20:41;20.50;40.30
29777;DHT22;16677;52.224;7.484;2022-08-05T11:26:19;21.60;6.20
29777;DHT22;16677;52.224;7.484;2022-08-05T11:28:58;22.00;1.00
29777;DHT22;16677;52.224;7.484;2022-08-05T11:31:42;22.10;1.00
29777;DHT22;16677;52.224;7.484;2022-08-05T11:34:40;21.80;1.90
29777;DHT22;16677;52.224;7.484;2022-08-05T11:41:01;20.60;1.00
29777;DHT22;16677;52.224;7.484;2022-08-05T11:49:24;20.50;34.20
29777;DHT22;16677;52.224;7.484;2022-08-05T11:51:51;20.50;16.60
29777;DHT22;16677;52.224;7.484;2022-08-05T11:54:28;21.10;3.10
29777;DHT22;16677;52.224;7.484;2022-08-05T11:57:01;22.10;1.00
29777;DHT22;16677;52.224;7.484;2022-08-05T11:59:48;22.10;1.00
29777;DHT22;16677;52.224;7.484;2022-08-05T12:02:16;21.20;1.00
29777;DHT22;16677;52.224;7.484;2022-08-05T12:04:50;20.70;1.00
29777;DHT22;16677;52.224;7.484;2022-08-05T12:07:24;20.40;1.20
29777;DHT22;16677;52.224;7.484;2022-08-05T12:10:17;20.20;21.60
29777;DHT22;16677;52.224;7.484;2022-08-05T12:12:45;20.30;18.20
29777;DHT22;16677;52.224;7.484;2022-08-05T12:15:25;20.70;18.80
29777;DHT22;16677;52.224;7.484;2022-08-05T12:18:04;20.90;4.80
29777;DHT22;16677;52.224;7.484;2022-08-05T12:20:38;20.90;1.00
29777;DHT22;16677;52.224;7.484;2022-08-05T12:23:08;20.50;1.00
29777;DHT22;16677;52.224;7.484;2022-08-05T12:25:54;20.60;1.00
29777;DHT22;16677;52.224;7.484;2022-08-05T12:28:38;20.70;1.00
29777;DHT22;16677;52.224;7.484;2022-08-05T12:31:05;20.70;1.00
29777;DHT22;16677;52.224;7.484;2022-08-05T12:33:32;20.80;1.00
29777;DHT22;16677;52.224;7.484;2022-08-05T12:36:05;21.10;1.00
29777;DHT22;16677;52.224;7.484;2022-08-05T12:38:38;21.20;1.00
29777;DHT22;16677;52.224;7.484;2022-08-05T12:41:09;21.10;1.00
29777;DHT22;16677;52.224;7.484;2022-08-05T12:43:54;21.60;1.00
29777;DHT22;16677;52.224;7.484;2022-08-05T12:46:31;21.50;1.00
29777;DHT22;16677;52.224;7.484;2022-08-05T12:51:26;22.10;1.00
29777;DHT22;16677;52.224;7.484;2022-08-05T12:54:32;21.60;1.00
29777;DHT22;16677;52.224;7.484;2022-08-05T12:57:01;21.70;1.00
29777;DHT22;16677;52.224;7.484;2022-08-05T12:59:31;21.70;1.00
29777;DHT22;16677;52.224;7.484;2022-08-05T13:02:25;22.00;1.00
29777;DHT22;16677;52.224;7.484;2022-08-05T13:04:56;21.70;1.00
29777;DHT22;16677;52.224;7.484;2022-08-05T13:07:25;21.70;1.00
29777;DHT22;16677;52.224;7.484;2022-08-05T13:10:13;21.80;1.00
29777;DHT22;16677;52.224;7.484;2022-08-05T13:12:45;21.80;1.00
29777;DHT22;16677;52.224;7.484;2022-08-05T13:15:29;22.40;1.00
29777;DHT22;16677;52.224;7.484;2022-08-05T13:18:07;22.60;1.00
29777;DHT22;16677;52.224;7.484;2022-08-05T13:20:35;22.40;1.00
29777;DHT22;16677;52.224;7.484;2022-08-05T13:23:06;23.10;1.00
29777;DHT22;16677;52.224;7.484;2022-08-05T13:25:33;23.30;1.00
29777;DHT22;16677;52.224;7.484;2022-08-05T13:28:21;22.80;1.00
29777;DHT22;16677;52.224;7.484;2022-08-05T13:30:47;22.20;1.00
29777;DHT22;16677;52.224;7.484;2022-08-05T13:33:19;22.00;1.00
29777;DHT22;16677;52.224;7.484;2022-08-05T13:36:06;22.10;1.00
29777;DHT22;16677;52.224;7.484;2022-08-05T13:38:35;22.20;1.00
29777;DHT22;16677;52.224;7.484;2022-08-05T13:41:08;21.90;1.00
29777;DHT22;16677;52.224;7.484;2022-08-05T13:43:35;22.10;1.00
29777;DHT22;16677;52.224;7.484;2022-08-05T13:46:10;22.40;1.00
29777;DHT22;16677;52.224;7.484;2022-08-05T13:48:40;22.40;1.00
29777;DHT22;16677;52.224;7.484;2022-08-05T13:51:32;22.50;1.00
29777;DHT22;16677;52.224;7.484;2022-08-05T13:54:05;22.40;1.00
29777;DHT22;16677;52.224;7.484;2022-08-05T13:56:39;22.50;1.00
29777;DHT22;16677;52.224;7.484;2022-08-05T13:59:18;22.40;1.00
29777;DHT22;16677;52.224;7.484;2022-08-05T14:01:47;22.70;1.00
29777;DHT22;16677;52.224;7.484;2022-08-05T14:04:30;22.60;1.00
29777;DHT22;16677;52.224;7.484;2022-08-05T14:07:38;22.80;1.00
29777;DHT22;16677;52.224;7.484;2022-08-05T14:10:25;22.80;1.00
29777;DHT22;16677;52.224;7.484;2022-08-05T14:12:57;22.70;1.00
29777;DHT22;16677;52.224;7.484;2022-08-05T14:15:25;22.50;1.00
29777;DHT22;16677;52.224;7.484;2022-08-05T14:18:13;22.60;1.00
29777;DHT22;16677;52.224;7.484;2022-08-05T14:20:47;22.40;1.00
29777;DHT22;16677;52.224;7.484;2022-08-05T14:23:18;22.50;1.00
29777;DHT22;16677;52.224;7.484;2022-08-05T14:25:53;22.30;1.00
29777;DHT22;16677;52.224;7.484;2022-08-05T14:28:23;22.40;1.00
29777;DHT22;16677;52.224;7.484;2022-08-05T14:30:53;22.40;1.00
29777;DHT22;16677;52.224;7.484;2022-08-05T14:33:20;22.30;1.00
29777;DHT22;16677;52.224;7.484;2022-08-05T14:35:49;22.40;1.00
29777;DHT22;16677;52.224;7.484;2022-08-05T14:38:18;22.80;1.00
29777;DHT22;16677;52.224;7.484;2022-08-05T14:41:03;22.50;1.00
29777;DHT22;16677;52.224;7.484;2022-08-05T14:43:36;22.00;1.00
29777;DHT22;16677;52.224;7.484;2022-08-05T14:46:24;21.80;1.00
29777;DHT22;16677;52.224;7.484;2022-08-05T14:48:54;21.80;1.00
29777;DHT22;16677;52.224;7.484;2022-08-05T14:51:22;21.70;1.00
29777;DHT22;16677;52.224;7.484;2022-08-05T14:53:50;22.00;1.00
29777;DHT22;16677;52.224;7.484;2022-08-05T14:56:37;21.80;1.00
29777;DHT22;16677;52.224;7.484;2022-08-05T14:59:12;21.70;1.00
29777;DHT22;16677;52.224;7.484;2022-08-05T15:01:39;21.80;1.00
29777;DHT22;16677;52.224;7.484;2022-08-05T15:04:18;22.20;1.00
29777;DHT22;16677;52.224;7.484;2022-08-05T15:06:46;21.70;1.00
29777;DHT22;16677;52.224;7.484;2022-08-05T15:09:19;21.90;1.00
29777;DHT22;16677;52.224;7.484;2022-08-05T15:12:07;21.80;1.00
29777;DHT22;16677;52.224;7.484;2022-08-05T15:14:43;22.00;1.00
29777;DHT22;16677;52.224;7.484;2022-08-05T15:17:19;21.80;1.00
29777;DHT22;16677;52.224;7.484;2022-08-05T15:20:08;21.80;1.00
29777;DHT22;16677;52.224;7.484;2022-08-05T15:22:45;21.70;1.00
29777;DHT22;16677;52.224;7.484;2022-08-05T15:25:20;21.90;1.00
29777;DHT22;16677;52.224;7.484;2022-08-05T15:28:07;22.60;1.00
29777;DHT22;16677;52.224;7.484;2022-08-05T15:30:40;21.90;1.00
29777;DHT22;16677;52.224;7.484;2022-08-05T15:33:09;21.90;1.00
29777;DHT22;16677;52.224;7.484;2022-08-05T15:35:37;21.40;1.00
29777;DHT22;16677;52.224;7.484;2022-08-05T15:38:11;21.40;1.00
29777;DHT22;16677;52.224;7.484;2022-08-05T15:40:58;21.70;1.00
29777;DHT22;16677;52.224;7.484;2022-08-05T15:43:45;21.70;1.00
29777;DHT22;16677;52.224;7.484;2022-08-05T15:46:13;21.80;1.00
29777;DHT22;16677;52.224;7.484;2022-08-05T15:48:41;21.70;1.00
29777;DHT22;16677;52.224;7.484;2022-08-05T15:51:25;21.90;1.00
29777;DHT22;16677;52.224;7.484;2022-08-05T15:54:12;21.30;1.00
29777;DHT22;16677;52.224;7.484;2022-08-05T15:56:41;22.10;1.00
29777;DHT22;16677;52.224;7.484;2022-08-05T15:59:09;23.00;1.00
29777;DHT22;16677;52.224;7.484;2022-08-05T16:01:48;22.30;1.00
29777;DHT22;16677;52.224;7.484;2022-08-05T16:04:19;22.70;1.00
29777;DHT22;16677;52.224;7.484;2022-08-05T16:06:54;23.10;1.00
29777;DHT22;16677;52.224;7.484;2022-08-05T16:09:22;22.40;1.00
29777;DHT22;16677;52.224;7.484;2022-08-05T16:11:50;22.40;1.00
29777;DHT22;16677;52.224;7.484;2022-08-05T16:14:20;22.90;1.00
29777;DHT22;16677;52.224;7.484;2022-08-05T16:16:48;22.40;1.00
29777;DHT22;16677;52.224;7.484;2022-08-05T16:19:15;22.20;1.00
29777;DHT22;16677;52.224;7.484;2022-08-05T16:22:03;22.10;1.00
29777;DHT22;16677;52.224;7.484;2022-08-05T16:24:31;22.50;1.00
29777;DHT22;16677;52.224;7.484;2022-08-05T16:27:16;22.50;1.00
29777;DHT22;16677;52.224;7.484;2022-08-05T16:29:43;21.70;1.00
29777;DHT22;16677;52.224;7.484;2022-08-05T16:32:17;21.50;1.00
29777;DHT22;16677;52.224;7.484;2022-08-05T16:34:55;21.40;1.00
29777;DHT22;16677;52.224;7.484;2022-08-05T16:37:22;21.60;1.00
29777;DHT22;16677;52.224;7.484;2022-08-05T16:40:10;21.70;1.00
29777;DHT22;16677;52.224;7.484;2022-08-05T16:42:50;21.70;1.00
29777;DHT22;16677;52.224;7.484;2022-08-05T16:45:17;21.50;1.00
29777;DHT22;16677;52.224;7.484;2022-08-05T16:48:04;22.00;1.00
29777;DHT22;16677;52.224;7.484;2022-08-05T16:50:31;21.90;1.00
29777;DHT22;16677;52.224;7.484;2022-08-05T16:52:58;22.10;1.00
29777;DHT22;16677;52.224;7.484;2022-08-05T16:55:38;21.80;1.00
29777;DHT22;16677;52.224;7.484;2022-08-05T16:58:13;21.90;1.00
29777;DHT22;16677;52.224;7.484;2022-08-05T17:00:45;22.60;1.00
29777;DHT22;16677;52.224;7.484;2022-08-05T17:03:15;22.50;1.00
29777;DHT22;16677;52.224;7.484;2022-08-05T17:05:46;21.90;1.00
29777;DHT22;16677;52.224;7.484;2022-08-05T17:08:19;21.90;1.00
29777;DHT22;16677;52.224;7.484;2022-08-05T17:11:02;21.90;1.00
29777;DHT22;16677;52.224;7.484;2022-08-05T17:13:33;21.80;1.00
29777;DHT22;16677;52.224;7.484;2022-08-05T17:16:07;21.60;1.00
29777;DHT22;16677;52.224;7.484;2022-08-05T17:18:54;21.80;1.00
29777;DHT22;16677;52.224;7.484;2022-08-05T17:21:21;21.40;1.00
29777;DHT22;16677;52.224;7.484;2022-08-05T17:23:49;21.20;1.00
29777;DHT22;16677;52.224;7.484;2022-08-05T17:26:34;21.10;1.00